createdAt,value
2022-08-12T00:01:01.441Z,49.52
2022-08-12T00:03:52.612Z,49.64
2022-08-12T00:06:46.906Z,50.07
2022-08-12T00:09:38.286Z,50.08
2022-08-12T00:12:29.654Z,49.99
2022-08-12T00:15:22.582Z,49.97
2022-08-12T00:18:14.105Z,50.58
2022-08-12T00:21:05.325Z,50.26
2022-08-12T00:23:56.948Z,50.43
2022-08-12T00:26:49.120Z,50.28
2022-08-12T00:29:43.639Z,50.63
2022-08-12T00:32:40.129Z,50.66
2022-08-12T00:35:44.308Z,51.06
2022-08-12T00:38:36.085Z,51.27
2022-08-12T00:41:30.685Z,51.54
2022-08-12T00:44:06.235Z,52.72
2022-08-12T00:46:54.975Z,52.35
2022-08-12T00:49:30.594Z,52.44
2022-08-12T00:52:06.451Z,52.33
2022-08-12T00:54:49.808Z,52.20
2022-08-12T00:57:35.480Z,52.63
2022-08-12T01:00:18.461Z,52.48
2022-08-12T01:02:58.499Z,52.59
2022-08-12T01:05:51.184Z,52.58
2022-08-12T01:08:42.529Z,52.92
2022-08-12T01:11:29.331Z,53.08
2022-08-12T01:14:03.129Z,53.42
2022-08-12T01:16:36.378Z,53.40
2022-08-12T01:19:12.920Z,53.08
2022-08-12T01:22:18.462Z,53.24
2022-08-12T01:25:04.095Z,53.59
2022-08-12T01:27:40.455Z,53.84
2022-08-12T01:30:14.626Z,53.91
2022-08-12T01:32:50.441Z,54.36
2022-08-12T01:35:24.393Z,54.34
2022-08-12T01:38:02.679Z,55.17
2022-08-12T01:40:40.469Z,54.62
2022-08-12T01:43:22.061Z,55.16
2022-08-12T01:46:43.820Z,55.85
2022-08-12T01:50:10.900Z,56.23
2022-08-12T01:53:05.334Z,56.48
2022-08-12T01:55:46.174Z,56.74
2022-08-12T01:58:54.283Z,57.04
2022-08-12T02:01:34.918Z,57.80
2022-08-12T02:04:55.463Z,57.89
2022-08-12T02:08:32.574Z,57.59
2022-08-12T02:11:25.222Z,57.97
2022-08-12T02:14:44.451Z,58.69
2022-08-12T02:17:55.410Z,59.03
2022-08-12T02:20:53.971Z,59.37
2022-08-12T02:23:27.941Z,59.20
2022-08-12T02:26:08.926Z,59.82
2022-08-12T02:28:42.370Z,59.52
2022-08-12T02:31:15.635Z,59.88
2022-08-12T02:33:49.468Z,59.88
2022-08-12T02:36:22.327Z,60.22
2022-08-12T02:38:57.529Z,60.47
2022-08-12T02:41:32.538Z,60.42
2022-08-12T02:44:09.931Z,60.98
2022-08-12T02:46:50.244Z,61.26
2022-08-12T02:49:31.416Z,62.31
2022-08-12T02:52:05.304Z,62.85
2022-08-12T02:54:40.940Z,63.03
2022-08-12T02:57:19.865Z,63.55
2022-08-12T02:59:54.691Z,63.58
2022-08-12T03:02:30.378Z,63.48
2022-08-12T03:05:04.776Z,64.03
2022-08-12T03:07:56.324Z,64.06
2022-08-12T03:10:40.096Z,64.40
2022-08-12T03:13:26.139Z,63.91
2022-08-12T03:15:59.335Z,64.07
2022-08-12T03:18:33.131Z,64.46
2022-08-12T03:21:05.804Z,64.62
2022-08-12T03:23:42.183Z,64.89
2022-08-12T03:26:15.076Z,65.48
2022-08-12T03:28:50.545Z,66.35
2022-08-12T03:31:30.592Z,66.71
2022-08-12T03:34:08.526Z,67.31
2022-08-12T03:36:43.055Z,67.55
2022-08-12T03:39:15.949Z,68.06
2022-08-12T03:42:17.114Z,68.16
2022-08-12T03:45:52.291Z,68.36
2022-08-12T03:48:44.634Z,68.40
2022-08-12T03:51:36.109Z,68.55
2022-08-12T03:54:28.427Z,68.73
2022-08-12T03:57:19.843Z,69.22
2022-08-12T04:00:11.048Z,68.45
2022-08-12T04:03:03.006Z,68.75
2022-08-12T04:05:55.240Z,69.22
2022-08-12T04:08:29.108Z,69.44
2022-08-12T04:11:20.341Z,69.66
2022-08-12T04:13:52.947Z,69.25
2022-08-12T04:16:25.540Z,69.65
2022-08-12T04:19:02.588Z,70.40
2022-08-12T04:21:36.223Z,71.31
2022-08-12T04:24:10.990Z,71.07
2022-08-12T04:26:44.124Z,70.85
2022-08-12T04:29:22.427Z,71.43
2022-08-12T04:32:15.775Z,71.58
2022-08-12T04:34:49.879Z,71.83
2022-08-12T04:37:23.271Z,71.41
2022-08-12T04:39:58.129Z,71.60
2022-08-12T04:42:32.527Z,72.25
2022-08-12T04:45:07.646Z,72.68
2022-08-12T04:47:40.373Z,72.62
2022-08-12T04:50:34.913Z,72.88
2022-08-12T04:53:10.153Z,72.79
2022-08-12T04:55:45.569Z,73.04
2022-08-12T04:58:29.683Z,73.23
2022-08-12T05:01:03.209Z,73.51
2022-08-12T05:03:46.268Z,73.19
2022-08-12T05:06:26.714Z,73.29
2022-08-12T05:09:00.646Z,72.64
2022-08-12T05:11:33.321Z,72.15
2022-08-12T05:14:06.983Z,71.80
2022-08-12T05:16:39.830Z,71.63
2022-08-12T05:19:18.686Z,71.07
2022-08-12T05:21:55.400Z,70.83
2022-08-12T05:24:28.013Z,70.62
2022-08-12T05:27:00.772Z,70.39
2022-08-12T05:30:08.354Z,69.89
2022-08-12T05:32:27.813Z,69.60
2022-08-12T05:35:07.101Z,69.15
2022-08-12T05:37:39.778Z,68.88
2022-08-12T05:40:16.279Z,68.58
2022-08-12T05:42:48.973Z,68.47
2022-08-12T05:45:21.488Z,67.83
2022-08-12T05:47:54.455Z,67.88
2022-08-12T05:50:27.384Z,67.49
2022-08-12T05:52:59.934Z,67.29
2022-08-12T05:55:34.814Z,67.05
2022-08-12T05:58:10.688Z,66.76
2022-08-12T06:00:43.202Z,66.67
2022-08-12T06:03:17.612Z,66.62
2022-08-12T06:05:55.041Z,66.15
2022-08-12T06:08:28.320Z,66.28
2022-08-12T06:11:01.562Z,65.68
2022-08-12T06:13:52.863Z,65.70
2022-08-12T06:16:27.246Z,65.27
2022-08-12T06:18:59.844Z,64.89
2022-08-12T06:21:33.331Z,64.58
2022-08-12T06:24:06.013Z,64.35
2022-08-12T06:26:38.667Z,63.43
2022-08-12T06:30:08.415Z,62.80
2022-08-12T06:32:12.170Z,62.23
2022-08-12T06:35:24.929Z,61.95
2022-08-12T06:37:57.114Z,61.62
2022-08-12T06:40:48.575Z,60.00
2022-08-12T06:43:21.324Z,60.07
2022-08-12T06:45:54.580Z,58.91
2022-08-12T06:48:28.733Z,58.96
2022-08-12T06:51:03.235Z,58.85
2022-08-12T06:53:36.648Z,58.39
2022-08-12T06:56:12.525Z,58.28
2022-08-12T06:58:45.376Z,57.20
2022-08-12T07:01:18.623Z,57.09
2022-08-12T07:03:51.308Z,57.05
2022-08-12T07:06:23.968Z,56.62
2022-08-12T07:08:56.582Z,56.29
2022-08-12T07:11:29.439Z,55.33
2022-08-12T07:14:12.152Z,54.20
2022-08-12T07:16:57.530Z,53.72
2022-08-12T07:19:45.019Z,54.06
2022-08-12T07:22:18.095Z,53.08
2022-08-12T07:25:10.643Z,52.07
2022-08-12T07:27:44.336Z,52.00
2022-08-12T07:30:16.857Z,51.95
2022-08-12T07:32:51.319Z,51.70
2022-08-12T07:35:24.189Z,51.90
2022-08-12T07:37:57.652Z,48.81
2022-08-12T07:40:30.244Z,49.31
2022-08-12T07:43:02.794Z,49.26
2022-08-12T07:45:35.301Z,49.21
2022-08-12T07:48:07.848Z,49.16
2022-08-12T07:50:40.489Z,47.64
2022-08-12T07:53:13.099Z,47.71
2022-08-12T07:55:46.044Z,46.99
2022-08-12T07:58:18.590Z,45.87
2022-08-12T08:00:53.012Z,45.75
2022-08-12T08:03:25.842Z,45.27
2022-08-12T08:05:59.402Z,45.36
2022-08-12T08:08:32.013Z,45.44
2022-08-12T08:11:23.154Z,44.75
2022-08-12T08:13:55.736Z,43.60
2022-08-12T08:16:28.293Z,43.29
2022-08-12T08:19:00.810Z,43.77
2022-08-12T08:21:35.387Z,43.45
2022-08-12T08:24:17.111Z,43.55
2022-08-12T08:26:52.446Z,42.40
2022-08-12T08:29:25.935Z,42.26
2022-08-12T08:32:01.343Z,42.20
2022-08-12T08:34:53.820Z,42.12
2022-08-12T08:37:32.493Z,40.84
2022-08-12T08:40:25.238Z,41.18
2022-08-12T08:42:57.801Z,40.64
2022-08-12T08:45:31.341Z,40.25
2022-08-12T08:48:04.375Z,41.07
2022-08-12T08:50:37.376Z,40.09
2022-08-12T08:53:10.743Z,40.01
2022-08-12T08:56:03.979Z,37.97
2022-08-12T08:58:40.291Z,38.03
2022-08-12T09:01:18.531Z,37.83
2022-08-12T09:05:12.609Z,37.45
2022-08-12T09:15:41.833Z,35.95
2022-08-12T09:18:18.622Z,35.76
2022-08-12T09:21:03.754Z,35.69
2022-08-12T09:23:57.268Z,35.03
2022-08-12T09:26:31.842Z,35.30
2022-08-12T09:29:12.014Z,34.54
2022-08-12T09:32:03.446Z,33.76
2022-08-12T09:34:42.993Z,34.15
2022-08-12T09:37:20.206Z,33.79
2022-08-12T09:40:05.443Z,34.24
2022-08-12T09:43:17.372Z,32.69
2022-08-12T09:46:07.124Z,32.11
2022-08-12T09:48:56.384Z,31.94
2022-08-12T09:51:38.331Z,32.14
2022-08-12T09:54:32.621Z,32.33
2022-08-12T09:58:46.901Z,31.84
2022-08-12T10:00:28.033Z,31.54
2022-08-12T10:03:32.296Z,32.34
2022-08-12T10:06:26.590Z,31.99
2022-08-12T10:08:59.488Z,32.19
2022-08-12T10:12:11.548Z,31.62
2022-08-12T10:14:49.999Z,31.49
2022-08-12T10:17:24.056Z,30.95
2022-08-12T10:19:59.622Z,30.56
2022-08-12T10:22:37.071Z,30.88
2022-08-12T10:26:35.087Z,30.95
2022-08-12T10:28:42.722Z,31.13
2022-08-12T10:32:01.699Z,31.12
2022-08-12T10:34:27.719Z,30.62
2022-08-12T10:37:22.702Z,30.15
2022-08-12T10:40:02.269Z,30.10
2022-08-12T10:43:00.467Z,30.17
2022-08-12T10:45:33.400Z,29.92
2022-08-12T10:48:21.923Z,29.77
2022-08-12T10:51:51.939Z,29.43
2022-08-12T10:54:00.742Z,29.40
2022-08-12T10:56:36.868Z,29.20
2022-08-12T10:59:11.632Z,29.31
2022-08-12T11:04:18.585Z,29.32
2022-08-12T11:04:49.399Z,29.18
2022-08-12T11:08:34.164Z,29.13
2022-08-12T11:10:18.931Z,29.21
2022-08-12T11:12:59.929Z,29.29
2022-08-12T11:16:02.835Z,29.17
2022-08-12T11:18:27.321Z,28.82
2022-08-12T11:21:00.960Z,28.94
2022-08-12T11:23:38.307Z,28.19
2022-08-12T11:26:12.623Z,28.42
2022-08-12T11:28:45.176Z,28.51
2022-08-12T11:31:56.046Z,28.72
2022-08-12T11:34:51.553Z,28.03
2022-08-12T11:37:25.716Z,28.25
2022-08-12T11:42:46.193Z,28.44
2022-08-12T11:45:19.931Z,28.18
2022-08-12T11:47:54.853Z,27.78
2022-08-12T11:50:32.387Z,28.09
2022-08-12T11:53:05.270Z,28.21
2022-08-12T11:55:57.786Z,28.18
2022-08-12T11:59:02.983Z,27.86
2022-08-12T12:01:59.080Z,27.95
2022-08-12T12:04:28.738Z,27.79
2022-08-12T12:07:07.127Z,27.67
2022-08-12T12:09:50.698Z,27.98
2022-08-12T12:12:25.761Z,27.27
2022-08-12T12:15:03.111Z,27.51
2022-08-12T12:17:42.461Z,27.82
2022-08-12T12:20:15.500Z,27.21
2022-08-12T12:22:48.158Z,27.27
2022-08-12T12:25:20.764Z,26.67
2022-08-12T12:28:36.597Z,26.59
2022-08-12T12:31:15.053Z,27.12
2022-08-12T12:33:59.170Z,27.23
2022-08-12T12:36:31.726Z,26.81
2022-08-12T12:39:06.563Z,26.82
2022-08-12T12:42:45.446Z,26.84
2022-08-12T12:44:41.905Z,26.92
2022-08-12T12:47:30.107Z,27.03
2022-08-12T12:50:06.037Z,27.21
2022-08-12T12:52:38.810Z,27.23
2022-08-12T12:55:16.185Z,26.94
2022-08-12T12:57:59.991Z,27.01
2022-08-12T13:00:33.664Z,27.46
2022-08-12T13:03:06.183Z,27.13
2022-08-12T13:05:53.802Z,26.99
2022-08-12T13:08:35.753Z,26.75
2022-08-12T13:11:09.102Z,26.94
2022-08-12T13:14:08.851Z,27.11
2022-08-12T13:16:36.358Z,26.88
2022-08-12T13:19:16.418Z,26.97
2022-08-12T13:22:18.191Z,26.81
2022-08-12T13:24:56.481Z,26.71
2022-08-12T13:27:41.423Z,26.89
2022-08-12T13:30:24.840Z,27.00
2022-08-12T13:32:58.759Z,27.04
2022-08-12T13:36:05.930Z,26.73
2022-08-12T13:38:54.679Z,26.69
2022-08-12T13:41:33.093Z,26.67
2022-08-12T13:44:10.610Z,26.38
2022-08-12T13:46:43.450Z,26.79
2022-08-12T13:49:17.500Z,26.43
2022-08-12T13:52:08.585Z,27.17
2022-08-12T13:54:42.221Z,26.53
2022-08-12T13:57:16.999Z,26.55
2022-08-12T13:59:55.434Z,26.42
2022-08-12T14:02:28.472Z,26.24
2022-08-12T14:05:02.271Z,26.34
2022-08-12T14:08:01.970Z,26.48
2022-08-12T14:10:50.831Z,26.14
2022-08-12T14:14:05.837Z,25.64
2022-08-12T14:16:37.557Z,25.51
2022-08-12T14:19:22.483Z,25.23
2022-08-12T14:21:59.425Z,25.32
2022-08-12T14:24:40.782Z,25.46
2022-08-12T14:27:13.925Z,25.21
2022-08-12T14:30:04.512Z,24.76
2022-08-12T14:32:39.112Z,25.32
2022-08-12T14:35:11.691Z,25.23
2022-08-12T14:37:56.332Z,24.87
2022-08-12T14:40:31.189Z,24.95
2022-08-12T14:43:06.242Z,24.92
2022-08-12T14:45:46.856Z,24.53
2022-08-12T14:48:24.498Z,24.56
2022-08-12T14:52:10.505Z,24.94
2022-08-12T14:55:10.922Z,24.79
2022-08-12T14:57:19.509Z,24.65
2022-08-12T14:59:58.318Z,24.89
2022-08-12T15:02:31.206Z,24.58
2022-08-12T15:05:04.354Z,24.88
2022-08-12T15:07:48.917Z,24.63
2022-08-12T15:10:31.201Z,24.46
2022-08-12T15:13:08.239Z,24.73
2022-08-12T15:15:45.820Z,24.79
2022-08-12T15:18:22.702Z,24.60
2022-08-12T15:21:04.367Z,24.63
2022-08-12T15:23:45.775Z,24.59
2022-08-12T15:26:34.700Z,24.26
2022-08-12T15:29:10.403Z,24.43
2022-08-12T15:31:59.846Z,24.32
2022-08-12T15:34:38.820Z,24.31
2022-08-12T15:37:18.309Z,24.10
2022-08-12T15:39:55.322Z,23.62
2022-08-12T15:42:34.531Z,23.64
2022-08-12T15:45:23.847Z,23.51
2022-08-12T15:48:16.377Z,23.34
2022-08-12T15:50:53.096Z,23.19
2022-08-12T15:53:53.416Z,23.06
2022-08-12T15:56:29.067Z,22.65
2022-08-12T15:59:02.286Z,22.52
2022-08-12T16:01:34.984Z,22.34
2022-08-12T16:04:11.900Z,22.43
2022-08-12T16:07:04.341Z,22.89
2022-08-12T16:09:56.610Z,22.19
2022-08-12T16:12:32.544Z,22.57
2022-08-12T16:15:08.311Z,22.47
2022-08-12T16:18:18.174Z,22.54
2022-08-12T16:20:36.705Z,22.52
2022-08-12T16:23:26.939Z,22.37
2022-08-12T16:26:15.193Z,22.55
2022-08-12T16:28:48.411Z,22.18
2022-08-12T16:31:23.117Z,22.29
2022-08-12T16:34:00.194Z,22.55
2022-08-12T16:36:33.489Z,22.53
2022-08-12T16:39:06.088Z,22.65
2022-08-12T16:41:40.061Z,22.47
2022-08-12T16:44:12.750Z,22.29
2022-08-12T16:46:58.060Z,22.43
2022-08-12T16:49:41.767Z,22.34
2022-08-12T16:52:18.094Z,22.31
2022-08-12T16:54:52.903Z,22.38
2022-08-12T16:57:43.046Z,22.24
2022-08-12T17:00:18.362Z,22.31
2022-08-12T17:02:58.121Z,22.12
2022-08-12T17:05:31.619Z,22.29
2022-08-12T17:08:07.745Z,22.31
2022-08-12T17:10:40.621Z,22.18
2022-08-12T17:13:26.251Z,22.09
2022-08-12T17:16:06.275Z,22.46
2022-08-12T17:18:57.096Z,22.34
2022-08-12T17:21:41.632Z,22.37
2022-08-12T17:24:28.966Z,22.01
2022-08-12T17:27:15.983Z,22.27
2022-08-12T17:30:02.374Z,21.97
2022-08-12T17:32:39.674Z,22.14
2022-08-12T17:35:29.925Z,21.99
2022-08-12T17:38:13.305Z,22.27
2022-08-12T17:40:47.522Z,22.19
2022-08-12T17:43:54.796Z,22.38
2022-08-12T17:46:23.654Z,22.44
2022-08-12T17:48:58.486Z,22.50
2022-08-12T17:51:34.415Z,22.60
2022-08-12T17:54:24.289Z,22.72
2022-08-12T17:56:57.912Z,22.76
2022-08-12T17:59:48.103Z,22.65
2022-08-12T18:02:29.905Z,22.47
2022-08-12T18:05:10.080Z,22.68
2022-08-12T18:07:44.963Z,22.42
2022-08-12T18:10:42.953Z,22.43
2022-08-12T18:13:34.687Z,22.09
2022-08-12T18:16:12.774Z,22.20
2022-08-12T18:18:46.148Z,22.48
2022-08-12T18:21:21.974Z,22.65
2022-08-12T18:23:58.629Z,22.81
2022-08-12T18:26:32.543Z,22.50
2022-08-12T18:29:07.443Z,22.92
2022-08-12T18:31:44.697Z,23.20
2022-08-12T18:34:35.397Z,23.05
2022-08-12T18:37:41.526Z,23.46
2022-08-12T18:40:23.582Z,24.12
2022-08-12T18:42:59.292Z,24.19
2022-08-12T18:45:47.151Z,24.58
2022-08-12T18:48:31.608Z,24.91
2022-08-12T18:51:21.946Z,25.67
2022-08-12T18:54:08.721Z,25.77
2022-08-12T18:56:42.367Z,26.31
2022-08-12T19:00:01.780Z,26.62
2022-08-12T19:02:21.554Z,27.17
2022-08-12T19:04:57.308Z,27.29
2022-08-12T19:07:49.454Z,27.81
2022-08-12T19:10:23.443Z,28.39
2022-08-12T19:13:23.961Z,28.42
2022-08-12T19:16:01.305Z,28.94
2022-08-12T19:18:36.875Z,29.12
2022-08-12T19:21:16.655Z,29.27
2022-08-12T19:24:12.605Z,29.40
2022-08-12T19:26:46.905Z,29.68
2022-08-12T19:29:39.562Z,30.32
2022-08-12T19:32:27.058Z,30.75
2022-08-12T19:38:03.809Z,31.19
2022-08-12T19:40:42.966Z,31.54
2022-08-12T19:43:21.767Z,31.96
2022-08-12T19:45:56.635Z,32.10
2022-08-12T19:48:33.018Z,32.12
2022-08-12T19:51:08.851Z,32.86
2022-08-12T19:53:57.656Z,32.99
2022-08-12T19:56:32.315Z,32.96
2022-08-12T19:59:23.402Z,33.38
2022-08-12T20:02:03.184Z,33.46
2022-08-12T20:06:03.592Z,33.21
2022-08-12T20:07:43.979Z,33.75
2022-08-12T20:10:35.622Z,33.92
2022-08-12T20:13:18.499Z,34.48
2022-08-12T20:15:59.939Z,34.66
2022-08-12T20:18:44.594Z,34.81
2022-08-12T20:21:25.523Z,35.02
2022-08-12T20:24:14.296Z,35.00
2022-08-12T20:26:48.151Z,35.72
2022-08-12T20:29:23.428Z,36.14
2022-08-12T20:32:09.444Z,36.18
2022-08-12T20:34:43.795Z,36.30
2022-08-12T20:37:16.650Z,36.02
2022-08-12T20:39:57.557Z,36.08
2022-08-12T20:42:33.337Z,36.25
2022-08-12T20:45:07.189Z,36.30
2022-08-12T20:47:46.638Z,36.55
2022-08-12T20:50:20.773Z,36.93
2022-08-12T20:52:53.687Z,37.19
2022-08-12T20:55:42.540Z,37.23
2022-08-12T20:58:16.707Z,37.54
2022-08-12T21:00:52.054Z,37.40
2022-08-12T21:03:52.778Z,37.35
2022-08-12T21:06:49.599Z,37.50
2022-08-12T21:09:29.562Z,37.68
2022-08-12T21:12:05.990Z,37.97
2022-08-12T21:15:16.628Z,38.10
2022-08-12T21:18:10.933Z,38.39
2022-08-12T21:20:57.216Z,38.74
2022-08-12T21:23:31.051Z,39.09
2022-08-12T21:26:16.380Z,39.74
2022-08-12T21:28:58.359Z,39.82
2022-08-12T21:32:37.459Z,39.90
2022-08-12T21:34:31.678Z,39.83
2022-08-12T21:37:26.850Z,40.04
2022-08-12T21:39:59.422Z,40.97
2022-08-12T21:42:46.117Z,40.48
2022-08-12T21:45:47.638Z,40.62
2022-08-12T21:48:11.814Z,40.67
2022-08-12T21:50:45.406Z,40.99
2022-08-12T21:54:05.988Z,40.84
2022-08-12T21:56:33.995Z,41.29
2022-08-12T21:59:14.460Z,41.02
2022-08-12T22:01:51.411Z,41.24
2022-08-12T22:04:42.471Z,41.48
2022-08-12T22:07:28.773Z,41.61
2022-08-12T22:10:29.314Z,41.89
2022-08-12T22:13:02.246Z,42.12
2022-08-12T22:15:34.961Z,42.21
2022-08-12T22:18:07.902Z,42.48
2022-08-12T22:20:44.997Z,42.51
2022-08-12T22:23:21.631Z,42.37
2022-08-12T22:26:01.364Z,42.33
2022-08-12T22:29:01.386Z,42.92
2022-08-12T22:31:34.530Z,42.81
2022-08-12T22:34:08.308Z,42.86
2022-08-12T22:36:51.096Z,43.12
2022-08-12T22:39:26.361Z,43.20
2022-08-12T22:42:19.720Z,43.47
2022-08-12T22:45:16.105Z,43.56
2022-08-12T22:47:55.354Z,43.65
2022-08-12T22:50:29.500Z,43.66
2022-08-12T22:53:15.691Z,43.68
2022-08-12T22:56:06.181Z,44.13
2022-08-12T22:58:41.455Z,44.29
2022-08-12T23:01:21.355Z,44.51
2022-08-12T23:04:15.458Z,44.47
2022-08-12T23:07:05.168Z,44.59
2022-08-12T23:09:48.103Z,44.57
2022-08-12T23:12:46.839Z,44.76
2022-08-12T23:15:19.945Z,44.99
2022-08-12T23:17:54.394Z,45.20
2022-08-12T23:20:27.698Z,45.36
2022-08-12T23:23:05.851Z,45.64
2022-08-12T23:25:54.466Z,45.91
2022-08-12T23:28:46.434Z,46.02
2022-08-12T23:32:03.549Z,46.44
2022-08-12T23:34:20.839Z,46.65
2022-08-12T23:37:07.905Z,46.85
2022-08-12T23:40:14.792Z,46.88
2022-08-12T23:42:33.413Z,47.22
2022-08-12T23:45:08.934Z,47.50
2022-08-12T23:47:57.988Z,47.70
2022-08-12T23:50:33.795Z,47.94
2022-08-12T23:53:17.007Z,48.33
2022-08-12T23:55:56.962Z,48.60
2022-08-12T23:58:31.120Z,49.15
